createdAt,value
2018-11-29T00:00:41.383Z,6.60
2018-11-29T00:03:14.743Z,6.60
2018-11-29T00:05:45.951Z,6.60
2018-11-29T00:08:15.118Z,6.60
2018-11-29T00:10:44.426Z,6.60
2018-11-29T00:16:15.873Z,6.60
2018-11-29T00:18:44.256Z,6.60
2018-11-29T00:21:12.754Z,6.60
2018-11-29T00:23:41.124Z,6.60
2018-11-29T00:26:10.513Z,6.60
2018-11-29T00:28:40.269Z,6.60
2018-11-29T00:31:12.898Z,6.60
2018-11-29T00:33:46.446Z,6.60
2018-11-29T00:36:18.594Z,6.60
2018-11-29T00:38:51.470Z,6.60
2018-11-29T00:41:25.966Z,6.60
2018-11-29T00:43:55.906Z,6.70
2018-11-29T00:46:27.207Z,6.70
2018-11-29T00:48:59.058Z,6.70
2018-11-29T00:51:28.590Z,6.70
2018-11-29T00:53:56.982Z,6.70
2018-11-29T00:56:25.404Z,6.70
2018-11-29T00:58:53.770Z,6.70
2018-11-29T01:01:22.220Z,6.70
2018-11-29T01:03:50.767Z,6.70
2018-11-29T01:06:19.173Z,6.70
2018-11-29T01:08:47.598Z,6.60
2018-11-29T01:11:16.336Z,6.60
2018-11-29T01:13:44.782Z,6.60
2018-11-29T01:16:13.206Z,6.60
2018-11-29T01:18:41.590Z,6.70
2018-11-29T01:21:11.030Z,6.60
2018-11-29T01:23:39.396Z,6.60
2018-11-29T01:26:07.770Z,6.60
2018-11-29T01:28:36.164Z,6.70
2018-11-29T01:31:04.582Z,6.60
2018-11-29T01:33:32.983Z,6.60
2018-11-29T01:36:01.423Z,6.60
2018-11-29T01:38:29.796Z,6.60
2018-11-29T01:40:58.195Z,6.60
2018-11-29T01:43:26.621Z,6.60
2018-11-29T03:24:06.671Z,6.50
2018-11-29T04:26:49.581Z,6.70
2018-11-29T05:22:17.683Z,6.70
2018-11-29T05:24:46.077Z,6.60
2018-11-29T05:27:14.487Z,6.60
2018-11-29T06:16:28.352Z,6.70
2018-11-29T06:18:56.786Z,6.80
2018-11-29T06:21:25.251Z,6.70
2018-11-29T06:23:54.160Z,6.70
2018-11-29T06:26:29.554Z,6.70
2018-11-29T06:29:06.399Z,6.80
2018-11-29T06:31:37.673Z,6.80
2018-11-29T06:34:07.036Z,6.80
2018-11-29T06:36:36.298Z,6.80
2018-11-29T06:39:10.070Z,6.70
2018-11-29T06:41:40.154Z,6.70
2018-11-29T06:44:09.082Z,6.80
2018-11-29T06:46:38.406Z,6.80
2018-11-29T06:49:15.882Z,6.70
2018-11-29T06:51:44.357Z,6.80
2018-11-29T06:54:15.406Z,6.80
2018-11-29T06:56:43.952Z,6.70
2018-11-29T06:59:12.420Z,6.70
2018-11-29T07:01:41.737Z,6.70
2018-11-29T07:04:10.228Z,6.80
2018-11-29T07:06:38.664Z,6.80
2018-11-29T07:09:08.789Z,6.80
2018-11-29T07:11:37.410Z,6.70
2018-11-29T07:14:06.039Z,6.80
2018-11-29T07:16:34.612Z,6.80
2018-11-29T07:19:03.236Z,6.80
2018-11-29T07:21:42.860Z,6.70
2018-11-29T07:24:11.375Z,6.70
2018-11-29T07:26:39.864Z,6.70
2018-11-29T07:29:09.056Z,6.70
2018-11-29T07:31:37.604Z,6.70
2018-11-29T07:34:12.632Z,6.70
2018-11-29T07:36:44.180Z,6.70
2018-11-29T07:39:18.035Z,6.70
2018-11-29T07:41:50.201Z,6.70
2018-11-29T07:44:30.873Z,6.70
2018-11-29T08:35:24.063Z,6.80
2018-11-29T08:37:52.519Z,6.80
2018-11-29T11:16:25.538Z,6.50
2018-11-29T11:18:54.021Z,6.60
2018-11-29T11:21:22.559Z,6.60
2018-11-29T11:23:51.071Z,6.60
2018-11-29T11:26:23.855Z,6.60
2018-11-29T11:28:55.688Z,6.50
2018-11-29T11:31:31.234Z,6.50
2018-11-29T11:34:01.811Z,6.50
2018-11-29T11:36:34.606Z,6.50
2018-11-29T11:39:03.653Z,6.50
2018-11-29T11:41:33.199Z,6.50
2018-11-29T11:44:01.817Z,6.40
2018-11-29T11:46:30.609Z,6.40
2018-11-29T11:48:59.273Z,6.40
2018-11-29T11:51:28.357Z,6.40
2018-11-29T11:53:57.841Z,6.40
2018-11-29T11:56:26.257Z,6.40
2018-11-29T11:58:54.747Z,6.40
2018-11-29T12:01:23.387Z,6.40
2018-11-29T12:03:51.936Z,6.40
2018-11-29T12:06:20.639Z,6.40
2018-11-29T12:08:49.144Z,6.40
2018-11-29T12:11:17.698Z,6.40
2018-11-29T12:13:46.333Z,6.40
2018-11-29T12:16:20.475Z,6.40
2018-11-29T12:18:53.554Z,6.30
2018-11-29T12:21:26.200Z,6.30
2018-11-29T12:23:58.333Z,6.30
2018-11-29T12:26:31.072Z,6.40
2018-11-29T12:29:03.998Z,6.50
2018-11-29T12:31:32.466Z,6.50
2018-11-29T12:34:00.966Z,6.50
2018-11-29T12:36:30.070Z,6.50
2018-11-29T12:38:58.601Z,6.50
2018-11-29T12:41:27.183Z,6.50
2018-11-29T12:43:55.529Z,6.50
2018-11-29T12:46:23.955Z,6.50
2018-11-29T12:48:52.430Z,6.60
2018-11-29T12:51:20.863Z,6.70
2018-11-29T12:53:49.279Z,6.70
2018-11-29T12:56:18.244Z,6.60
2018-11-29T12:58:49.058Z,6.70
2018-11-29T13:01:16.605Z,6.70
2018-11-29T13:03:45.613Z,6.70
2018-11-29T13:06:14.353Z,6.80
2018-11-29T13:08:43.945Z,6.80
2018-11-29T13:11:12.945Z,6.80
2018-11-29T13:13:42.814Z,6.80
2018-11-29T13:16:11.467Z,6.80
2018-11-29T13:18:43.727Z,6.80
2018-11-29T13:21:15.985Z,6.80
2018-11-29T13:23:46.422Z,6.70
2018-11-29T13:26:15.970Z,6.80
2018-11-29T13:28:44.614Z,6.70
2018-11-29T13:31:13.218Z,6.80
2018-11-29T13:33:41.818Z,6.80
2018-11-29T15:26:22.273Z,7.30
2018-11-29T15:28:50.706Z,7.40
2018-11-29T15:31:49.131Z,7.40
2018-11-29T15:34:17.775Z,7.50
2018-11-29T15:36:46.435Z,7.50
2018-11-29T15:39:14.899Z,7.60
2018-11-29T15:41:43.374Z,7.60
2018-11-29T15:44:12.217Z,7.70
2018-11-29T15:46:45.241Z,7.70
2018-11-29T15:49:21.983Z,7.80
2018-11-29T15:55:21.811Z,7.90
2018-11-29T15:57:53.266Z,8.00
2018-11-29T16:00:34.959Z,8.00
2018-11-29T16:03:06.631Z,8.00
2018-11-29T16:05:37.111Z,8.00
2018-11-29T16:08:09.773Z,8.00
2018-11-29T16:10:41.109Z,8.00
2018-11-29T16:13:15.655Z,8.00
2018-11-29T16:15:48.671Z,8.10
2018-11-29T16:18:21.210Z,8.10
2018-11-29T16:20:50.224Z,8.00
2018-11-29T16:23:28.882Z,8.10
2018-11-29T16:25:57.668Z,8.10
2018-11-29T16:28:26.254Z,8.10
2018-11-29T16:30:56.653Z,8.10
2018-11-29T16:33:31.243Z,8.10
2018-11-29T16:35:59.814Z,8.10
2018-11-29T16:38:28.334Z,8.10
2018-11-29T16:40:56.960Z,8.10
2018-11-29T16:43:25.350Z,8.10
2018-11-29T16:45:54.110Z,8.00
2018-11-29T16:48:22.818Z,8.00
2018-11-29T16:51:05.766Z,8.00
2018-11-29T16:53:34.281Z,8.10
2018-11-29T16:56:02.785Z,8.00
2018-11-29T16:58:37.101Z,8.00
2018-11-29T17:01:08.868Z,8.00
2018-11-29T17:03:34.521Z,8.00
2018-11-29T18:22:45.788Z,7.60
2018-11-29T18:25:15.198Z,7.50
2018-11-29T18:27:49.298Z,7.60
2018-11-29T18:30:18.923Z,7.60
2018-11-29T18:32:47.698Z,7.60
2018-11-29T18:35:16.860Z,7.60
2018-11-29T18:37:45.954Z,7.60
2018-11-29T18:40:20.336Z,7.60
2018-11-29T18:42:55.090Z,7.70
2018-11-29T18:45:25.954Z,7.70
2018-11-29T18:47:55.036Z,7.60
2018-11-29T18:50:25.835Z,7.60
2018-11-29T18:52:54.446Z,7.60
2018-11-29T18:55:25.298Z,7.70
2018-11-29T18:57:59.476Z,7.70
2018-11-29T19:00:32.802Z,7.70
2018-11-29T19:03:01.266Z,7.70
2018-11-29T19:05:29.754Z,7.70
2018-11-29T19:07:58.179Z,7.70
2018-11-29T19:10:29.746Z,7.80
2018-11-29T19:13:07.860Z,7.80
2018-11-29T19:15:36.327Z,7.80
2018-11-29T19:18:10.295Z,7.80
2018-11-29T19:20:33.562Z,7.70
2018-11-29T19:23:03.020Z,7.70
2018-11-29T19:25:31.590Z,7.70
2018-11-29T19:27:59.986Z,7.70
2018-11-29T19:30:33.324Z,7.70
2018-11-29T19:33:21.957Z,7.70
2018-11-29T19:35:51.720Z,7.60
2018-11-29T19:38:20.225Z,7.60
2018-11-29T19:40:49.739Z,7.50
2018-11-29T19:43:18.156Z,7.50
2018-11-29T19:45:46.796Z,7.50
2018-11-29T19:48:16.402Z,7.50
2018-11-29T19:50:45.144Z,7.50
2018-11-29T19:53:24.401Z,7.50
2018-11-29T19:55:54.983Z,7.50
2018-11-29T19:58:23.476Z,7.50
2018-11-29T20:00:51.916Z,7.60
2018-11-29T20:03:20.331Z,7.60
2018-11-29T20:05:51.816Z,7.60
2018-11-29T20:08:21.739Z,7.60
2018-11-29T20:10:52.385Z,7.60
2018-11-29T20:13:21.437Z,7.60
2018-11-29T20:15:51.251Z,7.60
2018-11-29T20:18:52.740Z,7.70
2018-11-29T20:37:23.610Z,7.70
2018-11-29T20:39:52.051Z,7.70
2018-11-29T20:42:38.965Z,7.70
2018-11-29T20:45:11.746Z,7.70
2018-11-29T20:47:40.281Z,7.80
2018-11-29T20:50:14.696Z,7.80
2018-11-29T20:52:39.360Z,7.80
2018-11-29T20:55:16.041Z,7.80
2018-11-29T20:57:45.927Z,7.90
2018-11-29T21:00:20.913Z,7.90
2018-11-29T21:02:49.524Z,7.90
2018-11-29T21:05:19.022Z,7.90
2018-11-29T21:07:49.910Z,8.00
2018-11-29T21:10:21.322Z,8.00
2018-11-29T21:12:51.072Z,8.00
2018-11-29T21:15:25.972Z,7.90
2018-11-29T21:17:54.412Z,8.00
2018-11-29T21:20:22.821Z,8.00
2018-11-29T21:22:52.764Z,8.00
2018-11-29T21:25:23.948Z,8.00
2018-11-29T21:27:55.189Z,8.00
2018-11-29T21:30:24.341Z,8.00
2018-11-29T21:32:52.769Z,8.10
2018-11-29T21:35:23.146Z,8.10
2018-11-29T21:37:52.567Z,8.10
2018-11-29T21:40:29.296Z,8.10
2018-11-29T21:42:59.107Z,8.10
2018-11-29T21:45:27.569Z,8.10
2018-11-29T21:47:56.959Z,8.10
2018-11-29T21:50:25.450Z,8.10
2018-11-29T21:52:53.859Z,8.10
2018-11-29T21:55:22.287Z,8.20
2018-11-29T21:57:51.351Z,8.20
2018-11-29T22:00:21.735Z,8.20
2018-11-29T22:10:22.223Z,8.20
2018-11-29T22:12:51.041Z,8.20
2018-11-29T22:15:20.135Z,8.20
2018-11-29T22:18:21.297Z,8.20
2018-11-29T22:20:56.111Z,8.20
2018-11-29T22:23:24.561Z,8.20
2018-11-29T22:25:53.641Z,8.20
2018-11-29T22:28:23.009Z,8.20
2018-11-29T22:30:51.499Z,8.20
2018-11-29T22:33:19.980Z,8.20
2018-11-29T22:35:48.499Z,8.20
2018-11-29T22:38:16.957Z,8.20
2018-11-29T22:40:45.405Z,8.20
2018-11-29T22:43:13.836Z,8.30
2018-11-29T22:45:42.432Z,8.30
2018-11-29T22:48:10.870Z,8.30
2018-11-29T22:50:39.244Z,8.30
2018-11-29T22:53:08.484Z,8.30
2018-11-29T22:55:36.962Z,8.30
2018-11-29T22:58:06.179Z,8.30
2018-11-29T23:00:43.620Z,8.30
2018-11-29T23:03:12.813Z,8.30
2018-11-29T23:05:41.174Z,8.30
2018-11-29T23:08:09.581Z,8.30
2018-11-29T23:10:38.041Z,8.30
2018-11-29T23:13:08.363Z,8.40
2018-11-29T23:15:36.789Z,8.40
2018-11-29T23:18:05.506Z,8.40
2018-11-29T23:20:34.002Z,8.50
2018-11-29T23:23:02.440Z,8.50
2018-11-29T23:25:30.876Z,8.40
2018-11-29T23:27:59.342Z,8.50
2018-11-29T23:30:27.813Z,8.50
2018-11-29T23:32:56.195Z,8.50
2018-11-29T23:35:24.626Z,8.50
2018-11-29T23:37:53.098Z,8.50
2018-11-29T23:40:21.520Z,8.50
2018-11-29T23:42:49.940Z,8.50
2018-11-29T23:45:18.337Z,8.50
2018-11-29T23:47:46.742Z,8.50
2018-11-29T23:50:17.811Z,8.50
2018-11-29T23:52:46.521Z,8.50
2018-11-29T23:55:21.104Z,8.50
2018-11-29T23:57:49.542Z,8.50
